sensor_id;sensor_type;location;lat;lon;timestamp;P1;durP1;ratioP1;P2;durP2;ratioP2
78141;SDS011;67393;52.620;13.482;2024-01-07T00:00:39;6.75;;;3.38;;
78141;SDS011;67393;52.620;13.482;2024-01-07T00:03:05;9.75;;;3.72;;
78141;SDS011;67393;52.620;13.482;2024-01-07T00:05:31;9.05;;;3.88;;
78141;SDS011;67393;52.620;13.482;2024-01-07T00:08:00;6.40;;;2.60;;
78141;SDS011;67393;52.620;13.482;2024-01-07T00:10:26;9.05;;;4.00;;
78141;SDS011;67393;52.620;13.482;2024-01-07T00:12:52;5.57;;;2.70;;
78141;SDS011;67393;52.620;13.482;2024-01-07T00:15:19;4.82;;;2.38;;
78141;SDS011;67393;52.620;13.482;2024-01-07T00:17:45;7.00;;;3.83;;
78141;SDS011;67393;52.620;13.482;2024-01-07T00:20:12;5.85;;;2.50;;
78141;SDS011;67393;52.620;13.482;2024-01-07T00:22:38;7.22;;;3.38;;
78141;SDS011;67393;52.620;13.482;2024-01-07T00:25:04;6.65;;;2.40;;
78141;SDS011;67393;52.620;13.482;2024-01-07T00:27:31;4.60;;;2.50;;
78141;SDS011;67393;52.620;13.482;2024-01-07T00:29:57;4.95;;;2.70;;
78141;SDS011;67393;52.620;13.482;2024-01-07T00:32:24;5.65;;;2.83;;
78141;SDS011;67393;52.620;13.482;2024-01-07T00:34:50;5.07;;;3.05;;
78141;SDS011;67393;52.620;13.482;2024-01-07T00:37:21;5.70;;;2.72;;
78141;SDS011;67393;52.620;13.482;2024-01-07T00:39:47;2.67;;;1.77;;
78141;SDS011;67393;52.620;13.482;2024-01-07T00:42:14;6.63;;;2.45;;
78141;SDS011;67393;52.620;13.482;2024-01-07T00:44:40;5.55;;;2.95;;
78141;SDS011;67393;52.620;13.482;2024-01-07T00:47:06;6.15;;;3.08;;
78141;SDS011;67393;52.620;13.482;2024-01-07T00:49:33;5.60;;;2.17;;
78141;SDS011;67393;52.620;13.482;2024-01-07T00:51:59;3.92;;;2.40;;
78141;SDS011;67393;52.620;13.482;2024-01-07T00:54:26;6.32;;;2.83;;
78141;SDS011;67393;52.620;13.482;2024-01-07T00:56:52;2.88;;;2.00;;
78141;SDS011;67393;52.620;13.482;2024-01-07T00:59:18;8.25;;;2.97;;
78141;SDS011;67393;52.620;13.482;2024-01-07T01:01:45;6.13;;;2.72;;
78141;SDS011;67393;52.620;13.482;2024-01-07T01:04:11;3.95;;;1.67;;
78141;SDS011;67393;52.620;13.482;2024-01-07T01:06:38;7.63;;;2.85;;
78141;SDS011;67393;52.620;13.482;2024-01-07T01:09:04;6.30;;;2.30;;
78141;SDS011;67393;52.620;13.482;2024-01-07T01:11:31;5.50;;;2.50;;
78141;SDS011;67393;52.620;13.482;2024-01-07T01:13:57;2.97;;;1.73;;
78141;SDS011;67393;52.620;13.482;2024-01-07T01:16:23;1.27;;;1.02;;
78141;SDS011;67393;52.620;13.482;2024-01-07T01:18:50;8.38;;;2.40;;
78141;SDS011;67393;52.620;13.482;2024-01-07T01:21:17;2.33;;;1.42;;
78141;SDS011;67393;52.620;13.482;2024-01-07T01:23:43;9.85;;;2.78;;
78141;SDS011;67393;52.620;13.482;2024-01-07T01:26:10;2.78;;;1.67;;
78141;SDS011;67393;52.620;13.482;2024-01-07T01:28:37;7.95;;;1.95;;
78141;SDS011;67393;52.620;13.482;2024-01-07T01:31:03;6.43;;;2.35;;
78141;SDS011;67393;52.620;13.482;2024-01-07T01:33:30;2.85;;;1.75;;
78141;SDS011;67393;52.620;13.482;2024-01-07T01:35:56;1.45;;;1.08;;
78141;SDS011;67393;52.620;13.482;2024-01-07T01:38:23;7.80;;;2.65;;
78141;SDS011;67393;52.620;13.482;2024-01-07T01:40:53;5.80;;;2.10;;
78141;SDS011;67393;52.620;13.482;2024-01-07T01:43:26;2.75;;;2.50;;
78141;SDS011;67393;52.620;13.482;2024-01-07T01:45:54;2.60;;;1.00;;
78141;SDS011;67393;52.620;13.482;2024-01-07T01:50:49;3.22;;;1.67;;
78141;SDS011;67393;52.620;13.482;2024-01-07T01:53:16;8.45;;;3.22;;
78141;SDS011;67393;52.620;13.482;2024-01-07T01:55:43;6.68;;;3.58;;
78141;SDS011;67393;52.620;13.482;2024-01-07T01:58:09;6.82;;;2.97;;
78141;SDS011;67393;52.620;13.482;2024-01-07T02:00:36;6.40;;;2.95;;
78141;SDS011;67393;52.620;13.482;2024-01-07T02:03:02;2.22;;;1.73;;
78141;SDS011;67393;52.620;13.482;2024-01-07T02:05:29;2.13;;;1.70;;
78141;SDS011;67393;52.620;13.482;2024-01-07T02:07:55;4.63;;;2.20;;
78141;SDS011;67393;52.620;13.482;2024-01-07T02:10:22;2.72;;;1.65;;
78141;SDS011;67393;52.620;13.482;2024-01-07T02:12:48;2.17;;;1.98;;
78141;SDS011;67393;52.620;13.482;2024-01-07T02:15:15;6.25;;;2.88;;
78141;SDS011;67393;52.620;13.482;2024-01-07T02:17:41;8.85;;;3.17;;
78141;SDS011;67393;52.620;13.482;2024-01-07T02:20:08;5.25;;;2.25;;
78141;SDS011;67393;52.620;13.482;2024-01-07T02:22:35;4.05;;;1.70;;
78141;SDS011;67393;52.620;13.482;2024-01-07T02:25:01;3.75;;;1.85;;
78141;SDS011;67393;52.620;13.482;2024-01-07T02:27:27;4.38;;;2.78;;
78141;SDS011;67393;52.620;13.482;2024-01-07T02:29:54;3.60;;;1.52;;
78141;SDS011;67393;52.620;13.482;2024-01-07T02:32:20;6.22;;;2.55;;
78141;SDS011;67393;52.620;13.482;2024-01-07T02:34:47;4.82;;;2.05;;
78141;SDS011;67393;52.620;13.482;2024-01-07T02:37:13;8.07;;;3.13;;
78141;SDS011;67393;52.620;13.482;2024-01-07T02:39:39;4.68;;;2.15;;
78141;SDS011;67393;52.620;13.482;2024-01-07T02:42:07;4.95;;;2.92;;
78141;SDS011;67393;52.620;13.482;2024-01-07T02:44:33;7.85;;;3.65;;
78141;SDS011;67393;52.620;13.482;2024-01-07T02:46:59;1.92;;;0.95;;
78141;SDS011;67393;52.620;13.482;2024-01-07T02:49:26;6.90;;;2.33;;
78141;SDS011;67393;52.620;13.482;2024-01-07T02:51:52;3.33;;;1.70;;
78141;SDS011;67393;52.620;13.482;2024-01-07T02:54:19;4.07;;;2.10;;
78141;SDS011;67393;52.620;13.482;2024-01-07T02:56:45;4.78;;;2.17;;
78141;SDS011;67393;52.620;13.482;2024-01-07T02:59:11;1.95;;;1.42;;
78141;SDS011;67393;52.620;13.482;2024-01-07T03:01:38;3.45;;;1.67;;
78141;SDS011;67393;52.620;13.482;2024-01-07T03:04:04;2.47;;;1.88;;
78141;SDS011;67393;52.620;13.482;2024-01-07T03:06:31;9.52;;;2.40;;
78141;SDS011;67393;52.620;13.482;2024-01-07T03:08:57;3.42;;;2.03;;
78141;SDS011;67393;52.620;13.482;2024-01-07T03:11:23;4.30;;;1.65;;
78141;SDS011;67393;52.620;13.482;2024-01-07T03:13:50;1.42;;;1.25;;
78141;SDS011;67393;52.620;13.482;2024-01-07T03:16:20;2.78;;;2.10;;
78141;SDS011;67393;52.620;13.482;2024-01-07T03:18:47;4.43;;;2.20;;
78141;SDS011;67393;52.620;13.482;2024-01-07T03:21:18;3.83;;;2.15;;
78141;SDS011;67393;52.620;13.482;2024-01-07T03:23:45;2.75;;;1.75;;
78141;SDS011;67393;52.620;13.482;2024-01-07T03:26:13;4.25;;;1.92;;
78141;SDS011;67393;52.620;13.482;2024-01-07T03:28:39;5.57;;;2.35;;
78141;SDS011;67393;52.620;13.482;2024-01-07T03:31:13;3.03;;;1.83;;
78141;SDS011;67393;52.620;13.482;2024-01-07T03:33:44;3.08;;;1.08;;
78141;SDS011;67393;52.620;13.482;2024-01-07T03:36:12;5.40;;;2.30;;
78141;SDS011;67393;52.620;13.482;2024-01-07T03:38:40;6.85;;;1.42;;
78141;SDS011;67393;52.620;13.482;2024-01-07T03:41:07;4.70;;;2.05;;
78141;SDS011;67393;52.620;13.482;2024-01-07T03:43:33;4.40;;;2.10;;
78141;SDS011;67393;52.620;13.482;2024-01-07T03:46:00;2.40;;;1.55;;
78141;SDS011;67393;52.620;13.482;2024-01-07T03:48:26;4.03;;;2.22;;
78141;SDS011;67393;52.620;13.482;2024-01-07T03:50:53;4.30;;;2.10;;
78141;SDS011;67393;52.620;13.482;2024-01-07T03:53:19;5.63;;;2.30;;
78141;SDS011;67393;52.620;13.482;2024-01-07T03:55:46;2.22;;;1.60;;
78141;SDS011;67393;52.620;13.482;2024-01-07T03:58:12;3.78;;;1.10;;
78141;SDS011;67393;52.620;13.482;2024-01-07T04:00:39;3.40;;;2.05;;
78141;SDS011;67393;52.620;13.482;2024-01-07T04:03:05;5.40;;;2.83;;
78141;SDS011;67393;52.620;13.482;2024-01-07T04:05:32;2.92;;;1.67;;
78141;SDS011;67393;52.620;13.482;2024-01-07T04:07:59;5.25;;;2.10;;
78141;SDS011;67393;52.620;13.482;2024-01-07T04:10:27;3.17;;;1.63;;
78141;SDS011;67393;52.620;13.482;2024-01-07T04:12:53;4.35;;;2.13;;
78141;SDS011;67393;52.620;13.482;2024-01-07T04:15:20;2.95;;;1.73;;
78141;SDS011;67393;52.620;13.482;2024-01-07T04:17:47;7.55;;;2.20;;
78141;SDS011;67393;52.620;13.482;2024-01-07T04:20:14;3.40;;;2.17;;
78141;SDS011;67393;52.620;13.482;2024-01-07T04:22:40;3.78;;;2.15;;
78141;SDS011;67393;52.620;13.482;2024-01-07T04:25:07;3.70;;;2.38;;
78141;SDS011;67393;52.620;13.482;2024-01-07T04:27:34;5.00;;;2.00;;
78141;SDS011;67393;52.620;13.482;2024-01-07T04:30:01;3.70;;;2.10;;
78141;SDS011;67393;52.620;13.482;2024-01-07T04:32:28;4.32;;;2.08;;
78141;SDS011;67393;52.620;13.482;2024-01-07T04:34:55;4.57;;;2.60;;
78141;SDS011;67393;52.620;13.482;2024-01-07T04:37:21;4.78;;;1.90;;
78141;SDS011;67393;52.620;13.482;2024-01-07T04:39:48;7.85;;;2.55;;
78141;SDS011;67393;52.620;13.482;2024-01-07T04:42:14;3.92;;;2.70;;
78141;SDS011;67393;52.620;13.482;2024-01-07T04:44:41;3.88;;;1.50;;
78141;SDS011;67393;52.620;13.482;2024-01-07T04:47:24;3.75;;;2.22;;
78141;SDS011;67393;52.620;13.482;2024-01-07T04:49:52;3.17;;;1.65;;
78141;SDS011;67393;52.620;13.482;2024-01-07T04:52:18;3.60;;;2.08;;
78141;SDS011;67393;52.620;13.482;2024-01-07T04:54:45;5.30;;;2.63;;
78141;SDS011;67393;52.620;13.482;2024-01-07T04:57:11;5.22;;;2.67;;
78141;SDS011;67393;52.620;13.482;2024-01-07T04:59:37;5.97;;;2.45;;
78141;SDS011;67393;52.620;13.482;2024-01-07T05:02:04;6.15;;;2.75;;
78141;SDS011;67393;52.620;13.482;2024-01-07T05:04:31;6.82;;;1.90;;
78141;SDS011;67393;52.620;13.482;2024-01-07T05:06:58;4.57;;;1.77;;
78141;SDS011;67393;52.620;13.482;2024-01-07T05:09:24;3.33;;;2.05;;
78141;SDS011;67393;52.620;13.482;2024-01-07T05:11:51;5.25;;;2.60;;
78141;SDS011;67393;52.620;13.482;2024-01-07T05:14:17;3.47;;;1.98;;
78141;SDS011;67393;52.620;13.482;2024-01-07T05:16:43;5.13;;;2.65;;
78141;SDS011;67393;52.620;13.482;2024-01-07T05:19:10;6.10;;;2.38;;
78141;SDS011;67393;52.620;13.482;2024-01-07T05:21:36;4.07;;;2.17;;
78141;SDS011;67393;52.620;13.482;2024-01-07T05:24:03;5.55;;;2.47;;
78141;SDS011;67393;52.620;13.482;2024-01-07T05:26:30;7.20;;;2.85;;
78141;SDS011;67393;52.620;13.482;2024-01-07T05:28:56;3.72;;;1.70;;
78141;SDS011;67393;52.620;13.482;2024-01-07T05:31:23;6.78;;;2.85;;
78141;SDS011;67393;52.620;13.482;2024-01-07T05:33:49;3.80;;;1.92;;
78141;SDS011;67393;52.620;13.482;2024-01-07T05:36:16;2.65;;;2.15;;
78141;SDS011;67393;52.620;13.482;2024-01-07T05:38:42;10.38;;;2.70;;
78141;SDS011;67393;52.620;13.482;2024-01-07T05:41:08;6.10;;;2.83;;
78141;SDS011;67393;52.620;13.482;2024-01-07T05:43:35;4.40;;;2.15;;
78141;SDS011;67393;52.620;13.482;2024-01-07T05:46:02;4.97;;;2.63;;
78141;SDS011;67393;52.620;13.482;2024-01-07T05:48:28;6.82;;;3.00;;
78141;SDS011;67393;52.620;13.482;2024-01-07T05:50:55;5.03;;;1.25;;
78141;SDS011;67393;52.620;13.482;2024-01-07T05:53:21;4.95;;;2.67;;
78141;SDS011;67393;52.620;13.482;2024-01-07T05:55:48;5.45;;;3.00;;
78141;SDS011;67393;52.620;13.482;2024-01-07T05:58:14;4.72;;;2.20;;
78141;SDS011;67393;52.620;13.482;2024-01-07T06:00:41;2.55;;;1.90;;
78141;SDS011;67393;52.620;13.482;2024-01-07T06:03:07;6.03;;;2.70;;
78141;SDS011;67393;52.620;13.482;2024-01-07T06:05:37;5.63;;;2.60;;
78141;SDS011;67393;52.620;13.482;2024-01-07T06:08:04;3.97;;;2.28;;
78141;SDS011;67393;52.620;13.482;2024-01-07T06:10:32;5.07;;;2.95;;
78141;SDS011;67393;52.620;13.482;2024-01-07T06:12:58;5.10;;;3.03;;
78141;SDS011;67393;52.620;13.482;2024-01-07T06:15:24;4.07;;;2.25;;
78141;SDS011;67393;52.620;13.482;2024-01-07T06:17:51;5.45;;;3.05;;
78141;SDS011;67393;52.620;13.482;2024-01-07T06:20:17;4.97;;;2.38;;
78141;SDS011;67393;52.620;13.482;2024-01-07T06:22:44;5.15;;;2.50;;
78141;SDS011;67393;52.620;13.482;2024-01-07T06:25:10;4.38;;;1.73;;
78141;SDS011;67393;52.620;13.482;2024-01-07T06:27:38;5.53;;;2.65;;
78141;SDS011;67393;52.620;13.482;2024-01-07T06:30:05;8.65;;;3.03;;
78141;SDS011;67393;52.620;13.482;2024-01-07T06:32:32;5.50;;;2.72;;
78141;SDS011;67393;52.620;13.482;2024-01-07T06:34:58;12.05;;;2.42;;
78141;SDS011;67393;52.620;13.482;2024-01-07T06:37:25;5.07;;;2.45;;
78141;SDS011;67393;52.620;13.482;2024-01-07T06:39:51;8.38;;;2.33;;
78141;SDS011;67393;52.620;13.482;2024-01-07T06:42:18;8.30;;;3.20;;
78141;SDS011;67393;52.620;13.482;2024-01-07T06:44:44;3.97;;;2.40;;
78141;SDS011;67393;52.620;13.482;2024-01-07T06:47:11;9.20;;;2.75;;
78141;SDS011;67393;52.620;13.482;2024-01-07T06:49:37;8.48;;;2.83;;
78141;SDS011;67393;52.620;13.482;2024-01-07T06:52:04;8.10;;;3.05;;
78141;SDS011;67393;52.620;13.482;2024-01-07T06:54:31;3.65;;;2.17;;
78141;SDS011;67393;52.620;13.482;2024-01-07T06:56:57;5.53;;;3.20;;
78141;SDS011;67393;52.620;13.482;2024-01-07T06:59:24;4.45;;;2.50;;
78141;SDS011;67393;52.620;13.482;2024-01-07T07:01:50;5.00;;;3.05;;
78141;SDS011;67393;52.620;13.482;2024-01-07T07:04:16;5.88;;;2.33;;
78141;SDS011;67393;52.620;13.482;2024-01-07T07:06:43;6.40;;;3.40;;
78141;SDS011;67393;52.620;13.482;2024-01-07T07:09:09;3.35;;;2.47;;
78141;SDS011;67393;52.620;13.482;2024-01-07T07:11:36;6.43;;;3.22;;
78141;SDS011;67393;52.620;13.482;2024-01-07T07:14:02;5.03;;;2.65;;
78141;SDS011;67393;52.620;13.482;2024-01-07T07:16:28;2.70;;;2.25;;
78141;SDS011;67393;52.620;13.482;2024-01-07T07:18:55;4.43;;;2.53;;
78141;SDS011;67393;52.620;13.482;2024-01-07T07:21:21;5.32;;;2.78;;
78141;SDS011;67393;52.620;13.482;2024-01-07T07:23:47;6.40;;;2.88;;
78141;SDS011;67393;52.620;13.482;2024-01-07T07:26:14;4.47;;;1.80;;
78141;SDS011;67393;52.620;13.482;2024-01-07T07:28:40;3.33;;;1.77;;
78141;SDS011;67393;52.620;13.482;2024-01-07T07:31:07;5.55;;;2.70;;
78141;SDS011;67393;52.620;13.482;2024-01-07T07:33:33;6.28;;;3.03;;
78141;SDS011;67393;52.620;13.482;2024-01-07T07:36:00;4.15;;;2.38;;
78141;SDS011;67393;52.620;13.482;2024-01-07T07:38:26;5.95;;;2.55;;
78141;SDS011;67393;52.620;13.482;2024-01-07T07:40:53;4.72;;;2.38;;
78141;SDS011;67393;52.620;13.482;2024-01-07T07:43:19;5.28;;;2.60;;
78141;SDS011;67393;52.620;13.482;2024-01-07T07:45:46;7.97;;;2.75;;
78141;SDS011;67393;52.620;13.482;2024-01-07T07:48:13;5.63;;;2.10;;
78141;SDS011;67393;52.620;13.482;2024-01-07T07:50:39;5.65;;;2.63;;
78141;SDS011;67393;52.620;13.482;2024-01-07T07:53:06;5.60;;;2.80;;
78141;SDS011;67393;52.620;13.482;2024-01-07T07:55:32;5.50;;;2.50;;
78141;SDS011;67393;52.620;13.482;2024-01-07T07:57:58;4.05;;;1.98;;
78141;SDS011;67393;52.620;13.482;2024-01-07T08:00:25;7.68;;;2.85;;
78141;SDS011;67393;52.620;13.482;2024-01-07T08:02:52;5.60;;;2.20;;
78141;SDS011;67393;52.620;13.482;2024-01-07T08:05:18;8.20;;;3.47;;
78141;SDS011;67393;52.620;13.482;2024-01-07T08:07:45;7.55;;;3.42;;
78141;SDS011;67393;52.620;13.482;2024-01-07T08:10:11;6.35;;;2.83;;
78141;SDS011;67393;52.620;13.482;2024-01-07T08:12:38;6.30;;;3.15;;
78141;SDS011;67393;52.620;13.482;2024-01-07T08:15:05;12.43;;;3.45;;
78141;SDS011;67393;52.620;13.482;2024-01-07T08:17:31;8.32;;;2.92;;
78141;SDS011;67393;52.620;13.482;2024-01-07T08:19:58;6.65;;;2.90;;
78141;SDS011;67393;52.620;13.482;2024-01-07T08:22:25;4.82;;;2.90;;
78141;SDS011;67393;52.620;13.482;2024-01-07T08:24:51;4.88;;;2.67;;
78141;SDS011;67393;52.620;13.482;2024-01-07T08:27:17;6.55;;;3.08;;
78141;SDS011;67393;52.620;13.482;2024-01-07T08:29:44;6.57;;;3.00;;
78141;SDS011;67393;52.620;13.482;2024-01-07T08:32:10;6.82;;;3.25;;
78141;SDS011;67393;52.620;13.482;2024-01-07T08:34:37;5.53;;;2.72;;
78141;SDS011;67393;52.620;13.482;2024-01-07T08:37:04;9.98;;;3.53;;
78141;SDS011;67393;52.620;13.482;2024-01-07T08:39:30;5.32;;;3.13;;
78141;SDS011;67393;52.620;13.482;2024-01-07T08:41:56;5.78;;;2.95;;
78141;SDS011;67393;52.620;13.482;2024-01-07T08:44:23;6.82;;;3.53;;
78141;SDS011;67393;52.620;13.482;2024-01-07T08:46:49;5.35;;;3.25;;
78141;SDS011;67393;52.620;13.482;2024-01-07T08:49:16;6.30;;;3.25;;
78141;SDS011;67393;52.620;13.482;2024-01-07T08:51:42;6.95;;;2.80;;
78141;SDS011;67393;52.620;13.482;2024-01-07T08:54:09;4.97;;;3.05;;
78141;SDS011;67393;52.620;13.482;2024-01-07T08:56:35;5.78;;;2.85;;
78141;SDS011;67393;52.620;13.482;2024-01-07T08:59:01;6.50;;;2.90;;
78141;SDS011;67393;52.620;13.482;2024-01-07T09:01:28;7.15;;;3.53;;
78141;SDS011;67393;52.620;13.482;2024-01-07T09:03:54;15.85;;;2.90;;
78141;SDS011;67393;52.620;13.482;2024-01-07T09:06:21;5.20;;;2.75;;
78141;SDS011;67393;52.620;13.482;2024-01-07T09:08:47;6.63;;;2.78;;
78141;SDS011;67393;52.620;13.482;2024-01-07T09:11:14;7.15;;;3.33;;
78141;SDS011;67393;52.620;13.482;2024-01-07T09:13:40;8.23;;;3.55;;
78141;SDS011;67393;52.620;13.482;2024-01-07T09:16:09;9.52;;;2.63;;
78141;SDS011;67393;52.620;13.482;2024-01-07T09:18:36;14.88;;;6.25;;
78141;SDS011;67393;52.620;13.482;2024-01-07T09:21:02;8.63;;;3.72;;
78141;SDS011;67393;52.620;13.482;2024-01-07T09:23:29;7.95;;;3.30;;
78141;SDS011;67393;52.620;13.482;2024-01-07T09:25:55;5.88;;;3.00;;
78141;SDS011;67393;52.620;13.482;2024-01-07T09:28:22;4.35;;;2.75;;
78141;SDS011;67393;52.620;13.482;2024-01-07T09:30:48;10.43;;;3.58;;
78141;SDS011;67393;52.620;13.482;2024-01-07T09:33:15;13.07;;;3.80;;
78141;SDS011;67393;52.620;13.482;2024-01-07T09:35:42;7.75;;;3.47;;
78141;SDS011;67393;52.620;13.482;2024-01-07T09:38:08;11.43;;;3.60;;
78141;SDS011;67393;52.620;13.482;2024-01-07T09:40:38;7.35;;;4.18;;
78141;SDS011;67393;52.620;13.482;2024-01-07T09:43:05;8.05;;;4.20;;
78141;SDS011;67393;52.620;13.482;2024-01-07T09:45:31;7.70;;;3.80;;
78141;SDS011;67393;52.620;13.482;2024-01-07T09:47:59;8.30;;;4.05;;
78141;SDS011;67393;52.620;13.482;2024-01-07T09:50:25;9.23;;;4.28;;
78141;SDS011;67393;52.620;13.482;2024-01-07T09:52:51;7.63;;;4.38;;
78141;SDS011;67393;52.620;13.482;2024-01-07T09:55:25;9.30;;;3.72;;
78141;SDS011;67393;52.620;13.482;2024-01-07T09:57:53;7.78;;;4.03;;
78141;SDS011;67393;52.620;13.482;2024-01-07T10:00:19;10.20;;;3.53;;
78141;SDS011;67393;52.620;13.482;2024-01-07T10:02:46;8.77;;;4.15;;
78141;SDS011;67393;52.620;13.482;2024-01-07T10:05:12;7.43;;;4.07;;
78141;SDS011;67393;52.620;13.482;2024-01-07T10:07:39;8.57;;;4.55;;
78141;SDS011;67393;52.620;13.482;2024-01-07T10:10:13;9.18;;;3.92;;
78141;SDS011;67393;52.620;13.482;2024-01-07T10:12:44;8.60;;;3.90;;
78141;SDS011;67393;52.620;13.482;2024-01-07T10:15:11;8.27;;;4.20;;
78141;SDS011;67393;52.620;13.482;2024-01-07T10:17:37;9.00;;;4.13;;
78141;SDS011;67393;52.620;13.482;2024-01-07T10:20:04;12.20;;;4.30;;
78141;SDS011;67393;52.620;13.482;2024-01-07T10:22:31;10.18;;;4.40;;
78141;SDS011;67393;52.620;13.482;2024-01-07T10:24:57;11.02;;;3.42;;
78141;SDS011;67393;52.620;13.482;2024-01-07T10:27:24;8.43;;;3.95;;
78141;SDS011;67393;52.620;13.482;2024-01-07T10:29:50;11.60;;;4.65;;
78141;SDS011;67393;52.620;13.482;2024-01-07T10:32:18;7.95;;;3.95;;
78141;SDS011;67393;52.620;13.482;2024-01-07T10:34:45;13.45;;;4.28;;
78141;SDS011;67393;52.620;13.482;2024-01-07T10:39:40;9.05;;;4.43;;
78141;SDS011;67393;52.620;13.482;2024-01-07T10:42:06;7.63;;;4.07;;
78141;SDS011;67393;52.620;13.482;2024-01-07T10:44:34;7.47;;;3.88;;
78141;SDS011;67393;52.620;13.482;2024-01-07T10:47:01;8.25;;;3.92;;
78141;SDS011;67393;52.620;13.482;2024-01-07T10:49:32;9.90;;;4.13;;
78141;SDS011;67393;52.620;13.482;2024-01-07T10:54:33;7.05;;;4.22;;
78141;SDS011;67393;52.620;13.482;2024-01-07T10:57:09;12.13;;;3.92;;
78141;SDS011;67393;52.620;13.482;2024-01-07T10:59:37;6.50;;;3.83;;
78141;SDS011;67393;52.620;13.482;2024-01-07T11:02:04;6.07;;;3.40;;
78141;SDS011;67393;52.620;13.482;2024-01-07T11:04:37;12.30;;;3.88;;
78141;SDS011;67393;52.620;13.482;2024-01-07T11:07:38;9.48;;;4.80;;
78141;SDS011;67393;52.620;13.482;2024-01-07T11:10:13;12.35;;;4.85;;
78141;SDS011;67393;52.620;13.482;2024-01-07T11:12:42;6.43;;;3.90;;
78141;SDS011;67393;52.620;13.482;2024-01-07T11:15:10;11.68;;;3.40;;
78141;SDS011;67393;52.620;13.482;2024-01-07T11:20:06;8.07;;;4.43;;
78141;SDS011;67393;52.620;13.482;2024-01-07T11:22:37;8.50;;;3.90;;
78141;SDS011;67393;52.620;13.482;2024-01-07T11:25:20;9.45;;;3.88;;
78141;SDS011;67393;52.620;13.482;2024-01-07T11:27:57;7.50;;;3.67;;
78141;SDS011;67393;52.620;13.482;2024-01-07T11:30:24;13.30;;;3.42;;
78141;SDS011;67393;52.620;13.482;2024-01-07T11:33:00;6.53;;;3.70;;
78141;SDS011;67393;52.620;13.482;2024-01-07T11:38:22;8.27;;;4.40;;
78141;SDS011;67393;52.620;13.482;2024-01-07T11:40:48;11.60;;;4.30;;
78141;SDS011;67393;52.620;13.482;2024-01-07T11:43:15;5.28;;;3.50;;
78141;SDS011;67393;52.620;13.482;2024-01-07T11:45:42;6.60;;;3.53;;
78141;SDS011;67393;52.620;13.482;2024-01-07T11:48:08;8.02;;;3.20;;
78141;SDS011;67393;52.620;13.482;2024-01-07T11:50:35;6.68;;;3.63;;
78141;SDS011;67393;52.620;13.482;2024-01-07T11:53:01;7.72;;;4.00;;
78141;SDS011;67393;52.620;13.482;2024-01-07T11:55:28;6.65;;;3.75;;
78141;SDS011;67393;52.620;13.482;2024-01-07T11:57:56;5.55;;;3.63;;
78141;SDS011;67393;52.620;13.482;2024-01-07T12:00:22;4.95;;;2.92;;
78141;SDS011;67393;52.620;13.482;2024-01-07T12:02:49;6.07;;;3.67;;
78141;SDS011;67393;52.620;13.482;2024-01-07T12:05:15;6.85;;;3.63;;
78141;SDS011;67393;52.620;13.482;2024-01-07T12:07:42;9.20;;;3.67;;
78141;SDS011;67393;52.620;13.482;2024-01-07T12:10:08;8.98;;;4.13;;
78141;SDS011;67393;52.620;13.482;2024-01-07T12:12:35;5.72;;;3.58;;
78141;SDS011;67393;52.620;13.482;2024-01-07T12:15:01;6.97;;;3.33;;
78141;SDS011;67393;52.620;13.482;2024-01-07T12:17:28;13.10;;;5.43;;
78141;SDS011;67393;52.620;13.482;2024-01-07T12:19:56;9.30;;;4.47;;
78141;SDS011;67393;52.620;13.482;2024-01-07T12:22:22;5.93;;;3.28;;
78141;SDS011;67393;52.620;13.482;2024-01-07T12:24:59;4.88;;;2.85;;
78141;SDS011;67393;52.620;13.482;2024-01-07T12:27:26;5.47;;;3.10;;
78141;SDS011;67393;52.620;13.482;2024-01-07T12:32:29;7.45;;;3.20;;
78141;SDS011;67393;52.620;13.482;2024-01-07T12:34:57;8.05;;;3.38;;
78141;SDS011;67393;52.620;13.482;2024-01-07T12:37:28;7.28;;;3.20;;
78141;SDS011;67393;52.620;13.482;2024-01-07T12:39:54;3.75;;;2.60;;
78141;SDS011;67393;52.620;13.482;2024-01-07T12:42:21;6.18;;;2.60;;
78141;SDS011;67393;52.620;13.482;2024-01-07T12:44:48;6.30;;;3.00;;
78141;SDS011;67393;52.620;13.482;2024-01-07T12:47:14;5.05;;;2.50;;
78141;SDS011;67393;52.620;13.482;2024-01-07T12:49:41;5.95;;;2.72;;
78141;SDS011;67393;52.620;13.482;2024-01-07T12:52:07;8.85;;;2.63;;
78141;SDS011;67393;52.620;13.482;2024-01-07T12:54:34;3.15;;;2.08;;
78141;SDS011;67393;52.620;13.482;2024-01-07T12:57:00;4.30;;;2.60;;
78141;SDS011;67393;52.620;13.482;2024-01-07T12:59:27;5.50;;;2.63;;
78141;SDS011;67393;52.620;13.482;2024-01-07T13:01:53;4.78;;;2.45;;
78141;SDS011;67393;52.620;13.482;2024-01-07T13:04:20;6.47;;;3.25;;
78141;SDS011;67393;52.620;13.482;2024-01-07T13:06:47;5.65;;;2.65;;
78141;SDS011;67393;52.620;13.482;2024-01-07T13:09:13;5.15;;;2.58;;
78141;SDS011;67393;52.620;13.482;2024-01-07T13:11:40;6.32;;;2.50;;
78141;SDS011;67393;52.620;13.482;2024-01-07T13:14:06;3.72;;;2.63;;
78141;SDS011;67393;52.620;13.482;2024-01-07T13:16:32;5.85;;;2.72;;
78141;SDS011;67393;52.620;13.482;2024-01-07T13:18:59;7.15;;;2.17;;
78141;SDS011;67393;52.620;13.482;2024-01-07T13:21:25;4.03;;;2.22;;
78141;SDS011;67393;52.620;13.482;2024-01-07T13:23:52;5.88;;;2.97;;
78141;SDS011;67393;52.620;13.482;2024-01-07T13:26:18;8.18;;;3.08;;
78141;SDS011;67393;52.620;13.482;2024-01-07T13:28:44;6.35;;;2.75;;
78141;SDS011;67393;52.620;13.482;2024-01-07T13:31:11;5.40;;;2.13;;
78141;SDS011;67393;52.620;13.482;2024-01-07T13:33:37;4.60;;;2.33;;
78141;SDS011;67393;52.620;13.482;2024-01-07T13:36:04;4.22;;;2.53;;
78141;SDS011;67393;52.620;13.482;2024-01-07T13:38:30;5.95;;;2.50;;
78141;SDS011;67393;52.620;13.482;2024-01-07T13:40:57;6.47;;;2.13;;
78141;SDS011;67393;52.620;13.482;2024-01-07T13:43:24;4.20;;;2.10;;
78141;SDS011;67393;52.620;13.482;2024-01-07T13:45:51;3.38;;;1.90;;
78141;SDS011;67393;52.620;13.482;2024-01-07T13:48:17;2.28;;;1.70;;
78141;SDS011;67393;52.620;13.482;2024-01-07T13:50:43;6.18;;;1.80;;
78141;SDS011;67393;52.620;13.482;2024-01-07T13:53:10;6.88;;;2.03;;
78141;SDS011;67393;52.620;13.482;2024-01-07T13:55:36;6.10;;;1.98;;
78141;SDS011;67393;52.620;13.482;2024-01-07T13:58:03;6.60;;;2.58;;
78141;SDS011;67393;52.620;13.482;2024-01-07T14:00:29;3.67;;;2.08;;
78141;SDS011;67393;52.620;13.482;2024-01-07T14:02:56;3.63;;;2.20;;
78141;SDS011;67393;52.620;13.482;2024-01-07T14:05:22;5.18;;;2.30;;
78141;SDS011;67393;52.620;13.482;2024-01-07T14:07:49;3.03;;;2.10;;
78141;SDS011;67393;52.620;13.482;2024-01-07T14:10:16;3.28;;;1.75;;
78141;SDS011;67393;52.620;13.482;2024-01-07T14:12:45;4.70;;;1.70;;
78141;SDS011;67393;52.620;13.482;2024-01-07T14:15:11;5.57;;;2.38;;
78141;SDS011;67393;52.620;13.482;2024-01-07T14:17:38;2.95;;;1.70;;
78141;SDS011;67393;52.620;13.482;2024-01-07T14:20:08;5.57;;;1.75;;
78141;SDS011;67393;52.620;13.482;2024-01-07T14:22:35;2.72;;;1.65;;
78141;SDS011;67393;52.620;13.482;2024-01-07T14:25:02;3.38;;;2.10;;
78141;SDS011;67393;52.620;13.482;2024-01-07T14:27:29;3.38;;;1.85;;
78141;SDS011;67393;52.620;13.482;2024-01-07T14:29:55;7.40;;;2.47;;
78141;SDS011;67393;52.620;13.482;2024-01-07T14:32:22;6.03;;;2.00;;
78141;SDS011;67393;52.620;13.482;2024-01-07T14:34:48;4.32;;;2.25;;
78141;SDS011;67393;52.620;13.482;2024-01-07T14:37:15;6.05;;;3.17;;
78141;SDS011;67393;52.620;13.482;2024-01-07T14:39:42;5.90;;;2.40;;
78141;SDS011;67393;52.620;13.482;2024-01-07T14:42:08;5.15;;;2.63;;
78141;SDS011;67393;52.620;13.482;2024-01-07T14:44:35;4.20;;;2.25;;
78141;SDS011;67393;52.620;13.482;2024-01-07T14:47:15;5.78;;;2.40;;